sensor_id;sensor_type;location;lat;lon;timestamp;P1;durP1;ratioP1;P2;durP2;ratioP2
39022;SDS011;25908;51.984;5.928;2023-07-24T00:02:13;2.83;;;1.40;;
39022;SDS011;25908;51.984;5.928;2023-07-24T00:04:39;2.30;;;1.20;;
39022;SDS011;25908;51.984;5.928;2023-07-24T00:07:05;1.75;;;1.23;;
39022;SDS011;25908;51.984;5.928;2023-07-24T00:09:31;1.40;;;1.10;;
39022;SDS011;25908;51.984;5.928;2023-07-24T00:11:56;1.75;;;1.00;;
39022;SDS011;25908;51.984;5.928;2023-07-24T00:14:22;1.90;;;1.20;;
39022;SDS011;25908;51.984;5.928;2023-07-24T00:16:48;2.22;;;1.30;;
39022;SDS011;25908;51.984;5.928;2023-07-24T00:19:13;2.08;;;1.10;;
39022;SDS011;25908;51.984;5.928;2023-07-24T00:21:39;2.03;;;1.20;;
39022;SDS011;25908;51.984;5.928;2023-07-24T00:24:04;1.92;;;1.08;;
39022;SDS011;25908;51.984;5.928;2023-07-24T00:26:30;1.92;;;1.33;;
39022;SDS011;25908;51.984;5.928;2023-07-24T00:28:56;1.55;;;1.15;;
39022;SDS011;25908;51.984;5.928;2023-07-24T00:31:21;1.65;;;1.15;;
39022;SDS011;25908;51.984;5.928;2023-07-24T00:33:47;2.38;;;1.40;;
39022;SDS011;25908;51.984;5.928;2023-07-24T00:36:13;2.90;;;1.50;;
39022;SDS011;25908;51.984;5.928;2023-07-24T00:38:38;2.47;;;1.42;;
39022;SDS011;25908;51.984;5.928;2023-07-24T00:41:04;3.45;;;1.70;;
39022;SDS011;25908;51.984;5.928;2023-07-24T00:43:30;2.58;;;1.50;;
39022;SDS011;25908;51.984;5.928;2023-07-24T00:45:56;3.13;;;1.48;;
39022;SDS011;25908;51.984;5.928;2023-07-24T00:48:22;1.58;;;1.23;;
39022;SDS011;25908;51.984;5.928;2023-07-24T00:50:47;2.35;;;1.50;;
39022;SDS011;25908;51.984;5.928;2023-07-24T00:53:14;1.88;;;1.38;;
39022;SDS011;25908;51.984;5.928;2023-07-24T00:55:41;2.22;;;1.17;;
39022;SDS011;25908;51.984;5.928;2023-07-24T00:58:07;2.00;;;1.35;;
39022;SDS011;25908;51.984;5.928;2023-07-24T01:00:37;1.52;;;1.10;;
39022;SDS011;25908;51.984;5.928;2023-07-24T01:03:03;1.83;;;1.20;;
39022;SDS011;25908;51.984;5.928;2023-07-24T01:05:29;2.60;;;1.20;;
39022;SDS011;25908;51.984;5.928;2023-07-24T01:07:55;1.55;;;0.93;;
39022;SDS011;25908;51.984;5.928;2023-07-24T01:10:21;1.70;;;1.25;;
39022;SDS011;25908;51.984;5.928;2023-07-24T01:15:29;2.17;;;1.50;;
39022;SDS011;25908;51.984;5.928;2023-07-24T01:18:01;2.22;;;1.40;;
39022;SDS011;25908;51.984;5.928;2023-07-24T01:20:33;3.58;;;1.58;;
39022;SDS011;25908;51.984;5.928;2023-07-24T01:26:05;2.38;;;1.52;;
39022;SDS011;25908;51.984;5.928;2023-07-24T01:28:32;3.22;;;1.48;;
39022;SDS011;25908;51.984;5.928;2023-07-24T01:30:58;5.20;;;1.60;;
39022;SDS011;25908;51.984;5.928;2023-07-24T01:33:24;2.72;;;1.60;;
39022;SDS011;25908;51.984;5.928;2023-07-24T01:35:50;3.03;;;1.80;;
39022;SDS011;25908;51.984;5.928;2023-07-24T01:38:22;3.13;;;1.90;;
39022;SDS011;25908;51.984;5.928;2023-07-24T01:40:49;3.05;;;2.03;;
39022;SDS011;25908;51.984;5.928;2023-07-24T01:43:15;2.60;;;1.98;;
39022;SDS011;25908;51.984;5.928;2023-07-24T01:45:41;3.13;;;2.20;;
39022;SDS011;25908;51.984;5.928;2023-07-24T01:48:07;3.08;;;2.13;;
39022;SDS011;25908;51.984;5.928;2023-07-24T01:50:32;4.60;;;2.22;;
39022;SDS011;25908;51.984;5.928;2023-07-24T01:52:58;2.58;;;1.80;;
39022;SDS011;25908;51.984;5.928;2023-07-24T01:55:23;3.97;;;2.30;;
39022;SDS011;25908;51.984;5.928;2023-07-24T01:57:49;3.55;;;2.38;;
39022;SDS011;25908;51.984;5.928;2023-07-24T02:00:15;2.95;;;1.80;;
39022;SDS011;25908;51.984;5.928;2023-07-24T02:02:40;4.25;;;2.30;;
39022;SDS011;25908;51.984;5.928;2023-07-24T02:05:06;3.03;;;2.15;;
39022;SDS011;25908;51.984;5.928;2023-07-24T02:07:32;4.20;;;2.60;;
39022;SDS011;25908;51.984;5.928;2023-07-24T02:09:57;2.75;;;2.00;;
39022;SDS011;25908;51.984;5.928;2023-07-24T02:12:23;2.80;;;1.98;;
39022;SDS011;25908;51.984;5.928;2023-07-24T02:14:49;3.38;;;2.40;;
39022;SDS011;25908;51.984;5.928;2023-07-24T02:17:16;2.45;;;1.70;;
39022;SDS011;25908;51.984;5.928;2023-07-24T02:19:42;4.28;;;2.03;;
39022;SDS011;25908;51.984;5.928;2023-07-24T02:22:08;2.97;;;1.90;;
39022;SDS011;25908;51.984;5.928;2023-07-24T02:24:33;2.70;;;1.98;;
39022;SDS011;25908;51.984;5.928;2023-07-24T02:27:00;2.95;;;2.08;;
39022;SDS011;25908;51.984;5.928;2023-07-24T02:29:25;3.78;;;2.40;;
39022;SDS011;25908;51.984;5.928;2023-07-24T02:31:52;5.35;;;2.30;;
39022;SDS011;25908;51.984;5.928;2023-07-24T02:34:18;3.50;;;2.30;;
39022;SDS011;25908;51.984;5.928;2023-07-24T02:36:44;2.65;;;2.10;;
39022;SDS011;25908;51.984;5.928;2023-07-24T02:39:10;6.25;;;2.20;;
39022;SDS011;25908;51.984;5.928;2023-07-24T02:41:35;4.38;;;2.58;;
39022;SDS011;25908;51.984;5.928;2023-07-24T02:44:02;4.20;;;2.42;;
39022;SDS011;25908;51.984;5.928;2023-07-24T02:46:28;3.50;;;2.20;;
39022;SDS011;25908;51.984;5.928;2023-07-24T02:48:55;4.18;;;2.22;;
39022;SDS011;25908;51.984;5.928;2023-07-24T02:51:21;3.55;;;2.40;;
39022;SDS011;25908;51.984;5.928;2023-07-24T02:53:46;3.90;;;2.13;;
39022;SDS011;25908;51.984;5.928;2023-07-24T02:56:12;3.67;;;2.30;;
39022;SDS011;25908;51.984;5.928;2023-07-24T02:58:37;4.03;;;2.45;;
39022;SDS011;25908;51.984;5.928;2023-07-24T03:01:04;3.28;;;2.25;;
39022;SDS011;25908;51.984;5.928;2023-07-24T03:03:31;4.00;;;2.47;;
39022;SDS011;25908;51.984;5.928;2023-07-24T03:05:57;6.43;;;3.33;;
39022;SDS011;25908;51.984;5.928;2023-07-24T03:08:23;5.03;;;2.75;;
39022;SDS011;25908;51.984;5.928;2023-07-24T03:10:48;3.85;;;2.72;;
39022;SDS011;25908;51.984;5.928;2023-07-24T03:13:14;5.80;;;2.75;;
39022;SDS011;25908;51.984;5.928;2023-07-24T03:15:40;3.58;;;2.45;;
39022;SDS011;25908;51.984;5.928;2023-07-24T03:18:05;4.68;;;2.97;;
39022;SDS011;25908;51.984;5.928;2023-07-24T03:20:31;3.72;;;2.90;;
39022;SDS011;25908;51.984;5.928;2023-07-24T03:22:56;3.40;;;2.65;;
39022;SDS011;25908;51.984;5.928;2023-07-24T03:25:22;5.28;;;3.42;;
39022;SDS011;25908;51.984;5.928;2023-07-24T03:27:48;4.60;;;3.30;;
39022;SDS011;25908;51.984;5.928;2023-07-24T03:30:13;4.20;;;3.08;;
39022;SDS011;25908;51.984;5.928;2023-07-24T03:32:39;4.00;;;3.00;;
39022;SDS011;25908;51.984;5.928;2023-07-24T03:35:05;4.72;;;3.40;;
39022;SDS011;25908;51.984;5.928;2023-07-24T03:37:31;4.50;;;2.63;;
39022;SDS011;25908;51.984;5.928;2023-07-24T03:39:57;5.05;;;2.95;;
39022;SDS011;25908;51.984;5.928;2023-07-24T03:42:26;4.90;;;3.22;;
39022;SDS011;25908;51.984;5.928;2023-07-24T03:44:53;5.13;;;3.42;;
39022;SDS011;25908;51.984;5.928;2023-07-24T03:47:19;5.03;;;3.60;;
39022;SDS011;25908;51.984;5.928;2023-07-24T03:49:45;5.78;;;4.20;;
39022;SDS011;25908;51.984;5.928;2023-07-24T03:52:10;5.75;;;3.78;;
39022;SDS011;25908;51.984;5.928;2023-07-24T03:54:36;5.47;;;3.80;;
39022;SDS011;25908;51.984;5.928;2023-07-24T03:57:02;4.75;;;3.75;;
39022;SDS011;25908;51.984;5.928;2023-07-24T03:59:28;5.20;;;3.60;;
39022;SDS011;25908;51.984;5.928;2023-07-24T04:01:53;4.85;;;4.13;;
39022;SDS011;25908;51.984;5.928;2023-07-24T04:04:19;5.07;;;3.78;;
39022;SDS011;25908;51.984;5.928;2023-07-24T04:06:45;5.60;;;3.85;;
39022;SDS011;25908;51.984;5.928;2023-07-24T04:09:11;7.03;;;4.13;;
39022;SDS011;25908;51.984;5.928;2023-07-24T04:11:39;5.03;;;3.60;;
39022;SDS011;25908;51.984;5.928;2023-07-24T04:14:05;4.47;;;3.33;;
39022;SDS011;25908;51.984;5.928;2023-07-24T04:16:31;4.45;;;3.45;;
39022;SDS011;25908;51.984;5.928;2023-07-24T04:18:56;4.80;;;3.72;;
39022;SDS011;25908;51.984;5.928;2023-07-24T04:21:22;4.30;;;3.42;;
39022;SDS011;25908;51.984;5.928;2023-07-24T04:23:48;7.45;;;3.30;;
39022;SDS011;25908;51.984;5.928;2023-07-24T04:26:13;3.97;;;3.00;;
39022;SDS011;25908;51.984;5.928;2023-07-24T04:28:39;4.20;;;3.13;;
39022;SDS011;25908;51.984;5.928;2023-07-24T04:31:04;5.47;;;3.63;;
39022;SDS011;25908;51.984;5.928;2023-07-24T04:33:30;4.30;;;3.20;;
39022;SDS011;25908;51.984;5.928;2023-07-24T04:35:56;4.07;;;3.08;;
39022;SDS011;25908;51.984;5.928;2023-07-24T04:38:21;4.20;;;3.25;;
39022;SDS011;25908;51.984;5.928;2023-07-24T04:40:47;4.82;;;3.38;;
39022;SDS011;25908;51.984;5.928;2023-07-24T04:43:13;5.05;;;3.40;;
39022;SDS011;25908;51.984;5.928;2023-07-24T04:45:38;4.68;;;3.20;;
39022;SDS011;25908;51.984;5.928;2023-07-24T04:48:04;4.55;;;3.45;;
39022;SDS011;25908;51.984;5.928;2023-07-24T04:50:30;4.47;;;3.28;;
39022;SDS011;25908;51.984;5.928;2023-07-24T04:52:56;5.20;;;3.78;;
39022;SDS011;25908;51.984;5.928;2023-07-24T04:55:21;3.97;;;3.20;;
39022;SDS011;25908;51.984;5.928;2023-07-24T04:57:47;3.92;;;2.92;;
39022;SDS011;25908;51.984;5.928;2023-07-24T05:00:13;5.05;;;3.40;;
39022;SDS011;25908;51.984;5.928;2023-07-24T05:02:39;3.95;;;3.40;;
39022;SDS011;25908;51.984;5.928;2023-07-24T05:05:05;6.32;;;3.30;;
39022;SDS011;25908;51.984;5.928;2023-07-24T05:07:31;5.13;;;3.47;;
39022;SDS011;25908;51.984;5.928;2023-07-24T05:09:57;4.85;;;3.90;;
39022;SDS011;25908;51.984;5.928;2023-07-24T05:12:22;5.95;;;4.35;;
39022;SDS011;25908;51.984;5.928;2023-07-24T05:14:48;5.10;;;3.88;;
39022;SDS011;25908;51.984;5.928;2023-07-24T05:17:14;4.93;;;3.90;;
39022;SDS011;25908;51.984;5.928;2023-07-24T05:19:39;5.32;;;3.75;;
39022;SDS011;25908;51.984;5.928;2023-07-24T05:22:05;5.35;;;3.90;;
39022;SDS011;25908;51.984;5.928;2023-07-24T05:24:31;5.65;;;4.22;;
39022;SDS011;25908;51.984;5.928;2023-07-24T05:26:56;5.97;;;4.72;;
39022;SDS011;25908;51.984;5.928;2023-07-24T05:29:22;6.13;;;4.45;;
39022;SDS011;25908;51.984;5.928;2023-07-24T05:31:47;5.30;;;4.50;;
39022;SDS011;25908;51.984;5.928;2023-07-24T05:34:13;5.43;;;4.70;;
39022;SDS011;25908;51.984;5.928;2023-07-24T05:36:40;5.45;;;4.57;;
39022;SDS011;25908;51.984;5.928;2023-07-24T05:39:06;7.22;;;5.30;;
39022;SDS011;25908;51.984;5.928;2023-07-24T05:41:31;6.78;;;5.40;;
39022;SDS011;25908;51.984;5.928;2023-07-24T05:43:57;7.07;;;5.72;;
39022;SDS011;25908;51.984;5.928;2023-07-24T05:46:23;6.10;;;5.20;;
39022;SDS011;25908;51.984;5.928;2023-07-24T05:48:48;5.85;;;5.00;;
39022;SDS011;25908;51.984;5.928;2023-07-24T05:51:14;7.18;;;5.20;;
39022;SDS011;25908;51.984;5.928;2023-07-24T05:53:39;6.47;;;5.30;;
39022;SDS011;25908;51.984;5.928;2023-07-24T05:56:05;7.38;;;6.40;;
39022;SDS011;25908;51.984;5.928;2023-07-24T05:58:31;7.97;;;5.85;;
39022;SDS011;25908;51.984;5.928;2023-07-24T06:00:56;7.93;;;5.50;;
39022;SDS011;25908;51.984;5.928;2023-07-24T06:03:22;7.38;;;5.78;;
39022;SDS011;25908;51.984;5.928;2023-07-24T06:05:52;6.20;;;5.10;;
39022;SDS011;25908;51.984;5.928;2023-07-24T06:08:18;7.20;;;5.30;;
39022;SDS011;25908;51.984;5.928;2023-07-24T06:10:48;6.07;;;5.07;;
39022;SDS011;25908;51.984;5.928;2023-07-24T06:13:15;6.95;;;5.20;;
39022;SDS011;25908;51.984;5.928;2023-07-24T06:15:41;8.98;;;6.15;;
39022;SDS011;25908;51.984;5.928;2023-07-24T06:18:06;7.65;;;5.07;;
39022;SDS011;25908;51.984;5.928;2023-07-24T06:20:32;7.97;;;5.80;;
39022;SDS011;25908;51.984;5.928;2023-07-24T06:22:58;6.45;;;5.38;;
39022;SDS011;25908;51.984;5.928;2023-07-24T06:25:23;8.25;;;5.53;;
39022;SDS011;25908;51.984;5.928;2023-07-24T06:27:49;8.18;;;5.53;;
39022;SDS011;25908;51.984;5.928;2023-07-24T06:30:14;7.10;;;5.60;;
39022;SDS011;25908;51.984;5.928;2023-07-24T06:32:40;8.32;;;5.63;;
39022;SDS011;25908;51.984;5.928;2023-07-24T06:35:05;7.50;;;5.68;;
39022;SDS011;25908;51.984;5.928;2023-07-24T06:37:31;6.68;;;5.82;;
39022;SDS011;25908;51.984;5.928;2023-07-24T06:39:57;8.57;;;6.03;;
39022;SDS011;25908;51.984;5.928;2023-07-24T06:42:22;7.13;;;5.78;;
39022;SDS011;25908;51.984;5.928;2023-07-24T06:44:48;9.98;;;6.05;;
39022;SDS011;25908;51.984;5.928;2023-07-24T06:47:14;8.20;;;6.05;;
39022;SDS011;25908;51.984;5.928;2023-07-24T06:49:39;7.90;;;6.38;;
39022;SDS011;25908;51.984;5.928;2023-07-24T06:52:05;8.23;;;6.53;;
39022;SDS011;25908;51.984;5.928;2023-07-24T06:54:31;6.90;;;5.75;;
39022;SDS011;25908;51.984;5.928;2023-07-24T06:56:56;8.20;;;5.50;;
39022;SDS011;25908;51.984;5.928;2023-07-24T06:59:22;10.32;;;6.75;;
39022;SDS011;25908;51.984;5.928;2023-07-24T07:01:48;7.28;;;5.80;;
39022;SDS011;25908;51.984;5.928;2023-07-24T07:04:14;7.95;;;6.25;;
39022;SDS011;25908;51.984;5.928;2023-07-24T07:06:39;8.65;;;6.53;;
39022;SDS011;25908;51.984;5.928;2023-07-24T07:09:05;7.40;;;6.30;;
39022;SDS011;25908;51.984;5.928;2023-07-24T07:11:31;8.15;;;5.90;;
39022;SDS011;25908;51.984;5.928;2023-07-24T07:13:57;8.35;;;6.78;;
39022;SDS011;25908;51.984;5.928;2023-07-24T07:16:22;8.35;;;7.20;;
39022;SDS011;25908;51.984;5.928;2023-07-24T07:18:48;9.35;;;7.38;;
39022;SDS011;25908;51.984;5.928;2023-07-24T07:21:13;10.63;;;7.82;;
39022;SDS011;25908;51.984;5.928;2023-07-24T07:23:39;9.95;;;7.72;;
39022;SDS011;25908;51.984;5.928;2023-07-24T07:26:05;10.32;;;7.70;;
39022;SDS011;25908;51.984;5.928;2023-07-24T07:28:30;9.13;;;7.93;;
39022;SDS011;25908;51.984;5.928;2023-07-24T07:30:56;9.65;;;7.90;;
39022;SDS011;25908;51.984;5.928;2023-07-24T07:33:22;10.02;;;7.88;;
39022;SDS011;25908;51.984;5.928;2023-07-24T07:35:48;9.00;;;7.25;;
39022;SDS011;25908;51.984;5.928;2023-07-24T07:38:14;9.25;;;7.72;;
39022;SDS011;25908;51.984;5.928;2023-07-24T07:40:39;8.27;;;6.43;;
39022;SDS011;25908;51.984;5.928;2023-07-24T07:43:05;8.13;;;7.10;;
39022;SDS011;25908;51.984;5.928;2023-07-24T07:45:31;10.10;;;7.50;;
39022;SDS011;25908;51.984;5.928;2023-07-24T07:47:56;9.73;;;8.55;;
39022;SDS011;25908;51.984;5.928;2023-07-24T07:50:22;10.07;;;7.97;;
39022;SDS011;25908;51.984;5.928;2023-07-24T07:52:51;9.25;;;7.35;;
39022;SDS011;25908;51.984;5.928;2023-07-24T07:55:20;12.45;;;8.27;;
39022;SDS011;25908;51.984;5.928;2023-07-24T07:57:45;8.88;;;7.28;;
39022;SDS011;25908;51.984;5.928;2023-07-24T08:00:11;8.93;;;7.13;;
39022;SDS011;25908;51.984;5.928;2023-07-24T08:02:37;8.23;;;6.70;;
39022;SDS011;25908;51.984;5.928;2023-07-24T08:05:09;7.45;;;5.93;;
39022;SDS011;25908;51.984;5.928;2023-07-24T08:07:35;9.23;;;6.93;;
39022;SDS011;25908;51.984;5.928;2023-07-24T08:10:01;12.35;;;8.30;;
39022;SDS011;25908;51.984;5.928;2023-07-24T08:12:28;8.82;;;7.93;;
39022;SDS011;25908;51.984;5.928;2023-07-24T08:14:54;9.80;;;8.13;;
39022;SDS011;25908;51.984;5.928;2023-07-24T08:17:20;10.20;;;7.72;;
39022;SDS011;25908;51.984;5.928;2023-07-24T08:19:46;9.48;;;7.57;;
39022;SDS011;25908;51.984;5.928;2023-07-24T08:22:11;8.90;;;7.35;;
39022;SDS011;25908;51.984;5.928;2023-07-24T08:24:37;10.13;;;7.97;;
39022;SDS011;25908;51.984;5.928;2023-07-24T08:27:02;9.93;;;8.38;;
39022;SDS011;25908;51.984;5.928;2023-07-24T08:29:28;10.43;;;7.93;;
39022;SDS011;25908;51.984;5.928;2023-07-24T08:31:54;10.20;;;9.07;;
39022;SDS011;25908;51.984;5.928;2023-07-24T08:34:19;10.48;;;7.75;;
39022;SDS011;25908;51.984;5.928;2023-07-24T08:36:45;9.95;;;7.97;;
39022;SDS011;25908;51.984;5.928;2023-07-24T08:39:10;9.23;;;7.30;;
39022;SDS011;25908;51.984;5.928;2023-07-24T08:41:36;10.50;;;7.88;;
39022;SDS011;25908;51.984;5.928;2023-07-24T08:44:03;8.63;;;7.57;;
39022;SDS011;25908;51.984;5.928;2023-07-24T08:46:36;10.18;;;8.07;;
39022;SDS011;25908;51.984;5.928;2023-07-24T08:49:03;7.88;;;6.68;;
39022;SDS011;25908;51.984;5.928;2023-07-24T08:51:29;10.90;;;7.00;;
39022;SDS011;25908;51.984;5.928;2023-07-24T08:53:56;8.07;;;6.88;;
39022;SDS011;25908;51.984;5.928;2023-07-24T08:56:22;8.38;;;6.82;;
39022;SDS011;25908;51.984;5.928;2023-07-24T08:58:48;7.60;;;6.47;;
39022;SDS011;25908;51.984;5.928;2023-07-24T09:01:14;8.43;;;6.30;;
39022;SDS011;25908;51.984;5.928;2023-07-24T09:03:40;7.50;;;5.63;;
39022;SDS011;25908;51.984;5.928;2023-07-24T09:06:05;7.22;;;5.90;;
39022;SDS011;25908;51.984;5.928;2023-07-24T09:11:00;6.72;;;5.57;;
39022;SDS011;25908;51.984;5.928;2023-07-24T09:13:27;6.28;;;5.40;;
39022;SDS011;25908;51.984;5.928;2023-07-24T09:15:53;6.65;;;5.55;;
39022;SDS011;25908;51.984;5.928;2023-07-24T09:18:20;6.47;;;5.03;;
39022;SDS011;25908;51.984;5.928;2023-07-24T09:20:46;7.93;;;6.30;;
39022;SDS011;25908;51.984;5.928;2023-07-24T09:23:13;8.48;;;6.18;;
39022;SDS011;25908;51.984;5.928;2023-07-24T09:25:39;8.27;;;6.07;;
39022;SDS011;25908;51.984;5.928;2023-07-24T09:28:14;7.75;;;5.40;;
39022;SDS011;25908;51.984;5.928;2023-07-24T09:30:40;5.57;;;4.72;;
39022;SDS011;25908;51.984;5.928;2023-07-24T09:33:07;7.97;;;5.47;;
39022;SDS011;25908;51.984;5.928;2023-07-24T09:35:33;6.25;;;5.20;;
39022;SDS011;25908;51.984;5.928;2023-07-24T09:38:03;6.35;;;5.20;;
39022;SDS011;25908;51.984;5.928;2023-07-24T09:40:37;7.13;;;5.50;;
39022;SDS011;25908;51.984;5.928;2023-07-24T09:45:42;6.07;;;4.65;;
39022;SDS011;25908;51.984;5.928;2023-07-24T09:48:09;7.32;;;5.05;;
39022;SDS011;25908;51.984;5.928;2023-07-24T09:50:39;6.13;;;5.28;;
39022;SDS011;25908;51.984;5.928;2023-07-24T09:53:12;5.65;;;4.50;;
39022;SDS011;25908;51.984;5.928;2023-07-24T09:55:43;7.47;;;4.68;;
39022;SDS011;25908;51.984;5.928;2023-07-24T09:58:16;5.72;;;4.35;;
39022;SDS011;25908;51.984;5.928;2023-07-24T10:00:43;5.70;;;4.57;;
39022;SDS011;25908;51.984;5.928;2023-07-24T10:03:10;5.88;;;4.32;;
39022;SDS011;25908;51.984;5.928;2023-07-24T10:05:36;7.38;;;4.88;;
39022;SDS011;25908;51.984;5.928;2023-07-24T10:08:02;6.75;;;4.65;;
39022;SDS011;25908;51.984;5.928;2023-07-24T10:10:27;7.15;;;4.28;;
39022;SDS011;25908;51.984;5.928;2023-07-24T10:12:57;6.70;;;4.40;;
39022;SDS011;25908;51.984;5.928;2023-07-24T10:15:23;7.82;;;5.20;;
39022;SDS011;25908;51.984;5.928;2023-07-24T10:17:49;6.13;;;4.63;;
39022;SDS011;25908;51.984;5.928;2023-07-24T10:20:32;6.78;;;4.90;;
39022;SDS011;25908;51.984;5.928;2023-07-24T10:23:00;7.25;;;5.25;;
39022;SDS011;25908;51.984;5.928;2023-07-24T10:25:33;7.15;;;4.75;;
39022;SDS011;25908;51.984;5.928;2023-07-24T10:28:09;8.68;;;5.00;;
39022;SDS011;25908;51.984;5.928;2023-07-24T10:30:37;6.53;;;4.25;;
39022;SDS011;25908;51.984;5.928;2023-07-24T10:33:07;7.32;;;4.82;;
39022;SDS011;25908;51.984;5.928;2023-07-24T10:35:44;5.38;;;4.00;;
39022;SDS011;25908;51.984;5.928;2023-07-24T10:38:15;7.10;;;4.95;;
39022;SDS011;25908;51.984;5.928;2023-07-24T10:40:41;7.60;;;4.90;;
39022;SDS011;25908;51.984;5.928;2023-07-24T10:43:10;7.90;;;5.22;;
39022;SDS011;25908;51.984;5.928;2023-07-24T10:45:50;7.30;;;4.97;;
39022;SDS011;25908;51.984;5.928;2023-07-24T10:48:18;8.93;;;4.95;;
39022;SDS011;25908;51.984;5.928;2023-07-24T10:50:46;7.10;;;4.57;;
39022;SDS011;25908;51.984;5.928;2023-07-24T10:53:16;6.75;;;4.90;;
39022;SDS011;25908;51.984;5.928;2023-07-24T10:55:43;11.65;;;5.63;;
39022;SDS011;25908;51.984;5.928;2023-07-24T10:58:09;6.97;;;5.03;;
39022;SDS011;25908;51.984;5.928;2023-07-24T11:00:41;6.93;;;4.90;;
39022;SDS011;25908;51.984;5.928;2023-07-24T11:03:10;6.45;;;4.93;;
39022;SDS011;25908;51.984;5.928;2023-07-24T11:05:43;9.65;;;6.20;;
39022;SDS011;25908;51.984;5.928;2023-07-24T11:08:13;6.93;;;5.22;;
39022;SDS011;25908;51.984;5.928;2023-07-24T11:10:53;5.68;;;4.18;;
39022;SDS011;25908;51.984;5.928;2023-07-24T11:13:21;7.38;;;4.47;;
39022;SDS011;25908;51.984;5.928;2023-07-24T11:15:51;5.53;;;4.55;;
39022;SDS011;25908;51.984;5.928;2023-07-24T11:18:18;7.50;;;5.50;;
39022;SDS011;25908;51.984;5.928;2023-07-24T11:20:48;7.60;;;5.25;;
39022;SDS011;25908;51.984;5.928;2023-07-24T11:23:14;7.15;;;5.43;;
39022;SDS011;25908;51.984;5.928;2023-07-24T11:25:40;6.05;;;4.68;;
39022;SDS011;25908;51.984;5.928;2023-07-24T11:28:06;5.72;;;4.82;;
39022;SDS011;25908;51.984;5.928;2023-07-24T11:30:33;6.68;;;4.90;;
39022;SDS011;25908;51.984;5.928;2023-07-24T11:33:00;8.50;;;4.40;;
39022;SDS011;25908;51.984;5.928;2023-07-24T11:35:27;5.25;;;4.18;;
39022;SDS011;25908;51.984;5.928;2023-07-24T11:37:53;6.78;;;4.07;;
39022;SDS011;25908;51.984;5.928;2023-07-24T11:40:19;5.53;;;4.60;;
39022;SDS011;25908;51.984;5.928;2023-07-24T11:42:46;6.28;;;5.25;;
39022;SDS011;25908;51.984;5.928;2023-07-24T11:45:12;6.93;;;4.70;;
39022;SDS011;25908;51.984;5.928;2023-07-24T11:50:07;7.72;;;4.93;;
39022;SDS011;25908;51.984;5.928;2023-07-24T11:55:12;6.40;;;4.88;;
39022;SDS011;25908;51.984;5.928;2023-07-24T11:57:57;5.80;;;4.90;;
39022;SDS011;25908;51.984;5.928;2023-07-24T12:00:25;6.68;;;5.15;;
39022;SDS011;25908;51.984;5.928;2023-07-24T12:02:51;8.05;;;5.55;;
39022;SDS011;25908;51.984;5.928;2023-07-24T12:05:17;7.90;;;5.50;;
39022;SDS011;25908;51.984;5.928;2023-07-24T12:07:43;6.97;;;4.78;;
39022;SDS011;25908;51.984;5.928;2023-07-24T12:10:12;7.65;;;5.60;;
39022;SDS011;25908;51.984;5.928;2023-07-24T12:12:39;9.25;;;6.13;;
39022;SDS011;25908;51.984;5.928;2023-07-24T12:15:09;6.80;;;4.90;;
39022;SDS011;25908;51.984;5.928;2023-07-24T12:17:36;5.95;;;4.30;;
39022;SDS011;25908;51.984;5.928;2023-07-24T12:20:02;5.72;;;4.03;;
39022;SDS011;25908;51.984;5.928;2023-07-24T12:22:30;5.35;;;3.70;;
39022;SDS011;25908;51.984;5.928;2023-07-24T12:24:57;7.38;;;4.07;;
39022;SDS011;25908;51.984;5.928;2023-07-24T12:27:23;6.55;;;3.38;;
39022;SDS011;25908;51.984;5.928;2023-07-24T12:29:49;6.47;;;4.22;;
39022;SDS011;25908;51.984;5.928;2023-07-24T12:32:16;8.93;;;4.10;;
39022;SDS011;25908;51.984;5.928;2023-07-24T12:34:41;8.65;;;5.28;;
39022;SDS011;25908;51.984;5.928;2023-07-24T12:37:07;5.75;;;4.13;;
39022;SDS011;25908;51.984;5.928;2023-07-24T12:39:32;7.07;;;4.47;;
39022;SDS011;25908;51.984;5.928;2023-07-24T12:41:58;7.03;;;4.32;;
39022;SDS011;25908;51.984;5.928;2023-07-24T12:44:23;8.75;;;3.92;;
39022;SDS011;25908;51.984;5.928;2023-07-24T12:46:51;6.07;;;4.20;;
39022;SDS011;25908;51.984;5.928;2023-07-24T12:49:16;6.30;;;4.13;;
39022;SDS011;25908;51.984;5.928;2023-07-24T12:51:42;5.63;;;4.10;;
39022;SDS011;25908;51.984;5.928;2023-07-24T12:54:07;7.88;;;4.72;;
39022;SDS011;25908;51.984;5.928;2023-07-24T12:56:34;6.00;;;4.28;;
39022;SDS011;25908;51.984;5.928;2023-07-24T12:59:01;7.60;;;5.25;;
39022;SDS011;25908;51.984;5.928;2023-07-24T13:01:27;7.22;;;4.32;;
39022;SDS011;25908;51.984;5.928;2023-07-24T13:03:53;7.15;;;4.88;;
39022;SDS011;25908;51.984;5.928;2023-07-24T13:06:19;6.60;;;4.07;;
39022;SDS011;25908;51.984;5.928;2023-07-24T13:08:45;7.32;;;3.90;;
39022;SDS011;25908;51.984;5.928;2023-07-24T13:11:10;6.03;;;3.00;;
39022;SDS011;25908;51.984;5.928;2023-07-24T13:13:36;6.60;;;2.90;;
39022;SDS011;25908;51.984;5.928;2023-07-24T13:16:02;5.75;;;3.40;;
39022;SDS011;25908;51.984;5.928;2023-07-24T13:18:28;4.82;;;2.55;;
39022;SDS011;25908;51.984;5.928;2023-07-24T13:20:54;3.78;;;2.55;;
39022;SDS011;25908;51.984;5.928;2023-07-24T13:23:21;5.03;;;2.28;;
39022;SDS011;25908;51.984;5.928;2023-07-24T13:25:46;3.75;;;2.20;;
39022;SDS011;25908;51.984;5.928;2023-07-24T13:28:12;5.72;;;2.92;;
39022;SDS011;25908;51.984;5.928;2023-07-24T13:30:38;4.20;;;2.25;;
39022;SDS011;25908;51.984;5.928;2023-07-24T13:33:03;4.80;;;3.00;;
39022;SDS011;25908;51.984;5.928;2023-07-24T13:35:29;5.82;;;2.85;;
39022;SDS011;25908;51.984;5.928;2023-07-24T13:37:54;3.67;;;2.20;;
39022;SDS011;25908;51.984;5.928;2023-07-24T13:40:20;4.60;;;2.53;;
39022;SDS011;25908;51.984;5.928;2023-07-24T13:42:45;6.07;;;3.38;;
39022;SDS011;25908;51.984;5.928;2023-07-24T13:45:11;3.53;;;2.25;;
39022;SDS011;25908;51.984;5.928;2023-07-24T13:47:37;4.68;;;2.30;;
39022;SDS011;25908;51.984;5.928;2023-07-24T13:50:02;5.30;;;2.40;;
39022;SDS011;25908;51.984;5.928;2023-07-24T13:52:29;3.70;;;2.13;;
39022;SDS011;25908;51.984;5.928;2023-07-24T13:54:55;3.80;;;2.42;;
39022;SDS011;25908;51.984;5.928;2023-07-24T13:57:20;5.15;;;2.70;;
39022;SDS011;25908;51.984;5.928;2023-07-24T13:59:46;6.40;;;2.65;;
39022;SDS011;25908;51.984;5.928;2023-07-24T14:02:12;5.50;;;2.83;;
39022;SDS011;25908;51.984;5.928;2023-07-24T14:04:38;4.60;;;2.45;;
39022;SDS011;25908;51.984;5.928;2023-07-24T14:07:03;5.05;;;2.60;;
39022;SDS011;25908;51.984;5.928;2023-07-24T14:09:29;4.28;;;2.85;;
39022;SDS011;25908;51.984;5.928;2023-07-24T14:11:56;4.40;;;2.92;;
39022;SDS011;25908;51.984;5.928;2023-07-24T14:14:21;5.38;;;3.25;;
39022;SDS011;25908;51.984;5.928;2023-07-24T14:16:48;3.83;;;2.80;;
39022;SDS011;25908;51.984;5.928;2023-07-24T14:19:14;3.42;;;2.33;;
39022;SDS011;25908;51.984;5.928;2023-07-24T14:21:40;6.32;;;2.67;;
39022;SDS011;25908;51.984;5.928;2023-07-24T14:24:06;3.90;;;2.38;;
39022;SDS011;25908;51.984;5.928;2023-07-24T14:26:31;4.50;;;2.88;;
39022;SDS011;25908;51.984;5.928;2023-07-24T14:28:57;5.65;;;3.20;;
39022;SDS011;25908;51.984;5.928;2023-07-24T14:31:23;4.00;;;2.78;;
39022;SDS011;25908;51.984;5.928;2023-07-24T14:33:49;7.57;;;3.63;;
39022;SDS011;25908;51.984;5.928;2023-07-24T14:36:15;6.90;;;4.20;;
39022;SDS011;25908;51.984;5.928;2023-07-24T14:38:40;6.53;;;4.05;;
39022;SDS011;25908;51.984;5.928;2023-07-24T14:41:06;5.72;;;3.65;;
39022;SDS011;25908;51.984;5.928;2023-07-24T14:43:32;7.90;;;4.32;;
39022;SDS011;25908;51.984;5.928;2023-07-24T14:45:57;6.28;;;3.63;;
39022;SDS011;25908;51.984;5.928;2023-07-24T14:48:23;6.03;;;4.00;;
39022;SDS011;25908;51.984;5.928;2023-07-24T14:50:48;6.30;;;4.03;;
39022;SDS011;25908;51.984;5.928;2023-07-24T14:53:14;6.43;;;4.03;;
39022;SDS011;25908;51.984;5.928;2023-07-24T14:55:40;6.45;;;4.22;;
39022;SDS011;25908;51.984;5.928;2023-07-24T14:58:05;5.03;;;4.13;;
39022;SDS011;25908;51.984;5.928;2023-07-24T15:00:34;4.72;;;3.60;;